sensor_id;sensor_type;location;lat;lon;timestamp;temperature;humidity
3701;DHT22;1866;48.374;10.766;2023-06-14T00:01:15;10.70;99.90
3701;DHT22;1866;48.374;10.766;2023-06-14T00:03:42;10.30;99.90
3701;DHT22;1866;48.374;10.766;2023-06-14T00:06:09;10.40;99.90
3701;DHT22;1866;48.374;10.766;2023-06-14T00:08:37;10.20;99.90
3701;DHT22;1866;48.374;10.766;2023-06-14T00:11:05;10.40;99.90
3701;DHT22;1866;48.374;10.766;2023-06-14T00:13:32;10.70;99.90
3701;DHT22;1866;48.374;10.766;2023-06-14T00:15:59;11.00;99.90
3701;DHT22;1866;48.374;10.766;2023-06-14T00:18:25;10.90;99.90
3701;DHT22;1866;48.374;10.766;2023-06-14T00:20:54;10.90;99.90
3701;DHT22;1866;48.374;10.766;2023-06-14T00:23:21;10.70;99.90
3701;DHT22;1866;48.374;10.766;2023-06-14T00:25:48;10.30;99.90
3701;DHT22;1866;48.374;10.766;2023-06-14T00:28:17;10.00;99.90
3701;DHT22;1866;48.374;10.766;2023-06-14T00:30:43;9.90;99.90
3701;DHT22;1866;48.374;10.766;2023-06-14T00:33:12;9.80;99.90
3701;DHT22;1866;48.374;10.766;2023-06-14T00:35:39;9.80;99.90
3701;DHT22;1866;48.374;10.766;2023-06-14T00:38:05;9.80;99.90
3701;DHT22;1866;48.374;10.766;2023-06-14T00:40:32;9.90;99.90
3701;DHT22;1866;48.374;10.766;2023-06-14T00:43:00;9.80;99.90
3701;DHT22;1866;48.374;10.766;2023-06-14T00:45:28;9.70;99.90
3701;DHT22;1866;48.374;10.766;2023-06-14T00:47:57;9.70;99.90
3701;DHT22;1866;48.374;10.766;2023-06-14T00:50:26;9.60;99.90
3701;DHT22;1866;48.374;10.766;2023-06-14T00:52:53;9.60;99.90
3701;DHT22;1866;48.374;10.766;2023-06-14T00:55:20;9.50;99.90
3701;DHT22;1866;48.374;10.766;2023-06-14T00:57:47;9.60;99.90
3701;DHT22;1866;48.374;10.766;2023-06-14T01:00:15;9.50;99.90
3701;DHT22;1866;48.374;10.766;2023-06-14T01:02:43;9.40;99.90
3701;DHT22;1866;48.374;10.766;2023-06-14T01:05:10;9.20;99.90
3701;DHT22;1866;48.374;10.766;2023-06-14T01:07:45;9.10;99.90
3701;DHT22;1866;48.374;10.766;2023-06-14T01:10:26;9.10;99.90
3701;DHT22;1866;48.374;10.766;2023-06-14T01:13:02;9.20;99.90
3701;DHT22;1866;48.374;10.766;2023-06-14T01:15:31;9.20;99.90
3701;DHT22;1866;48.374;10.766;2023-06-14T01:17:59;9.40;99.90
3701;DHT22;1866;48.374;10.766;2023-06-14T01:20:30;9.20;99.90
3701;DHT22;1866;48.374;10.766;2023-06-14T01:22:59;9.20;99.90
3701;DHT22;1866;48.374;10.766;2023-06-14T01:25:26;9.30;99.90
3701;DHT22;1866;48.374;10.766;2023-06-14T01:27:56;9.20;99.90
3701;DHT22;1866;48.374;10.766;2023-06-14T01:30:24;9.00;99.90
3701;DHT22;1866;48.374;10.766;2023-06-14T01:32:53;8.90;99.90
3701;DHT22;1866;48.374;10.766;2023-06-14T01:35:21;8.90;99.90
3701;DHT22;1866;48.374;10.766;2023-06-14T01:37:49;8.90;99.90
3701;DHT22;1866;48.374;10.766;2023-06-14T01:40:19;8.90;99.90
3701;DHT22;1866;48.374;10.766;2023-06-14T01:42:49;9.10;99.90
3701;DHT22;1866;48.374;10.766;2023-06-14T01:45:16;9.00;99.90
3701;DHT22;1866;48.374;10.766;2023-06-14T01:47:44;8.90;99.90
3701;DHT22;1866;48.374;10.766;2023-06-14T01:50:12;8.90;99.90
3701;DHT22;1866;48.374;10.766;2023-06-14T01:52:39;8.80;99.90
3701;DHT22;1866;48.374;10.766;2023-06-14T01:55:06;8.90;99.90
3701;DHT22;1866;48.374;10.766;2023-06-14T01:57:36;8.80;99.90
3701;DHT22;1866;48.374;10.766;2023-06-14T02:00:03;8.70;1.00
3701;DHT22;1866;48.374;10.766;2023-06-14T02:02:31;8.70;1.00
3701;DHT22;1866;48.374;10.766;2023-06-14T02:04:58;8.70;1.00
3701;DHT22;1866;48.374;10.766;2023-06-14T02:07:25;8.80;1.00
3701;DHT22;1866;48.374;10.766;2023-06-14T02:09:52;8.80;99.90
3701;DHT22;1866;48.374;10.766;2023-06-14T02:12:19;8.80;99.90
3701;DHT22;1866;48.374;10.766;2023-06-14T02:14:47;8.90;99.90
3701;DHT22;1866;48.374;10.766;2023-06-14T02:17:14;9.00;99.90
3701;DHT22;1866;48.374;10.766;2023-06-14T02:19:41;9.20;99.90
3701;DHT22;1866;48.374;10.766;2023-06-14T02:22:08;9.40;99.90
3701;DHT22;1866;48.374;10.766;2023-06-14T02:24:35;9.20;99.90
3701;DHT22;1866;48.374;10.766;2023-06-14T02:27:02;9.00;99.90
3701;DHT22;1866;48.374;10.766;2023-06-14T02:29:29;8.50;99.90
3701;DHT22;1866;48.374;10.766;2023-06-14T02:31:58;8.40;99.90
3701;DHT22;1866;48.374;10.766;2023-06-14T02:34:24;8.50;99.90
3701;DHT22;1866;48.374;10.766;2023-06-14T02:36:52;8.80;99.90
3701;DHT22;1866;48.374;10.766;2023-06-14T02:39:18;8.90;99.90
3701;DHT22;1866;48.374;10.766;2023-06-14T02:41:48;8.90;99.90
3701;DHT22;1866;48.374;10.766;2023-06-14T02:44:17;8.60;99.90
3701;DHT22;1866;48.374;10.766;2023-06-14T02:46:44;8.40;1.00
3701;DHT22;1866;48.374;10.766;2023-06-14T02:49:13;8.40;1.00
3701;DHT22;1866;48.374;10.766;2023-06-14T02:51:40;8.30;1.00
3701;DHT22;1866;48.374;10.766;2023-06-14T02:54:07;8.40;1.00
3701;DHT22;1866;48.374;10.766;2023-06-14T02:56:34;8.40;1.00
3701;DHT22;1866;48.374;10.766;2023-06-14T02:59:01;8.40;1.00
3701;DHT22;1866;48.374;10.766;2023-06-14T03:01:28;8.40;1.00
3701;DHT22;1866;48.374;10.766;2023-06-14T03:04:00;8.60;1.00
3701;DHT22;1866;48.374;10.766;2023-06-14T03:06:30;8.60;1.00
3701;DHT22;1866;48.374;10.766;2023-06-14T03:08:57;8.50;1.00
3701;DHT22;1866;48.374;10.766;2023-06-14T03:11:26;8.40;1.00
3701;DHT22;1866;48.374;10.766;2023-06-14T03:13:54;8.70;1.00
3701;DHT22;1866;48.374;10.766;2023-06-14T03:16:22;8.90;1.00
3701;DHT22;1866;48.374;10.766;2023-06-14T03:18:50;8.50;1.00
3701;DHT22;1866;48.374;10.766;2023-06-14T03:21:17;8.30;1.00
3701;DHT22;1866;48.374;10.766;2023-06-14T03:23:46;8.10;1.00
3701;DHT22;1866;48.374;10.766;2023-06-14T03:26:14;8.20;1.00
3701;DHT22;1866;48.374;10.766;2023-06-14T03:28:43;8.40;1.00
3701;DHT22;1866;48.374;10.766;2023-06-14T03:31:10;8.80;1.00
3701;DHT22;1866;48.374;10.766;2023-06-14T03:33:37;9.00;99.90
3701;DHT22;1866;48.374;10.766;2023-06-14T03:36:04;8.70;99.90
3701;DHT22;1866;48.374;10.766;2023-06-14T03:38:31;8.40;1.00
3701;DHT22;1866;48.374;10.766;2023-06-14T03:41:00;8.30;1.00
3701;DHT22;1866;48.374;10.766;2023-06-14T03:43:27;8.40;1.00
3701;DHT22;1866;48.374;10.766;2023-06-14T03:45:55;8.40;1.00
3701;DHT22;1866;48.374;10.766;2023-06-14T03:48:22;8.20;1.00
3701;DHT22;1866;48.374;10.766;2023-06-14T03:50:49;8.10;1.00
3701;DHT22;1866;48.374;10.766;2023-06-14T03:53:16;8.10;1.00
3701;DHT22;1866;48.374;10.766;2023-06-14T03:55:43;8.10;1.00
3701;DHT22;1866;48.374;10.766;2023-06-14T03:58:11;8.20;1.00
3701;DHT22;1866;48.374;10.766;2023-06-14T04:00:38;8.10;1.00
3701;DHT22;1866;48.374;10.766;2023-06-14T04:03:05;8.00;1.00
3701;DHT22;1866;48.374;10.766;2023-06-14T04:05:32;7.80;1.00
3701;DHT22;1866;48.374;10.766;2023-06-14T04:07:59;7.80;1.00
3701;DHT22;1866;48.374;10.766;2023-06-14T04:10:27;8.20;1.00
3701;DHT22;1866;48.374;10.766;2023-06-14T04:12:54;10.10;1.00
3701;DHT22;1866;48.374;10.766;2023-06-14T04:15:22;11.80;99.90
3701;DHT22;1866;48.374;10.766;2023-06-14T04:17:49;12.70;99.90
3701;DHT22;1866;48.374;10.766;2023-06-14T04:20:16;13.20;99.90
3701;DHT22;1866;48.374;10.766;2023-06-14T04:22:43;13.00;99.90
3701;DHT22;1866;48.374;10.766;2023-06-14T04:25:10;13.60;99.90
3701;DHT22;1866;48.374;10.766;2023-06-14T04:27:37;13.80;99.90
3701;DHT22;1866;48.374;10.766;2023-06-14T04:30:05;14.50;99.90
3701;DHT22;1866;48.374;10.766;2023-06-14T04:32:34;15.20;99.90
3701;DHT22;1866;48.374;10.766;2023-06-14T04:35:04;15.40;99.90
3701;DHT22;1866;48.374;10.766;2023-06-14T04:37:31;15.40;99.90
3701;DHT22;1866;48.374;10.766;2023-06-14T04:39:58;15.30;99.90
3701;DHT22;1866;48.374;10.766;2023-06-14T04:42:26;15.30;99.90
3701;DHT22;1866;48.374;10.766;2023-06-14T04:44:56;15.90;99.90
3701;DHT22;1866;48.374;10.766;2023-06-14T04:47:23;16.10;99.90
3701;DHT22;1866;48.374;10.766;2023-06-14T04:49:57;16.30;99.90
3701;DHT22;1866;48.374;10.766;2023-06-14T04:52:25;16.40;99.90
3701;DHT22;1866;48.374;10.766;2023-06-14T04:54:54;16.30;99.90
3701;DHT22;1866;48.374;10.766;2023-06-14T04:57:21;16.50;99.90
3701;DHT22;1866;48.374;10.766;2023-06-14T04:59:51;16.50;99.90
3701;DHT22;1866;48.374;10.766;2023-06-14T05:02:20;16.10;99.90
3701;DHT22;1866;48.374;10.766;2023-06-14T05:04:47;15.50;99.90
3701;DHT22;1866;48.374;10.766;2023-06-14T05:07:16;13.70;99.90
3701;DHT22;1866;48.374;10.766;2023-06-14T05:09:43;13.30;99.90
3701;DHT22;1866;48.374;10.766;2023-06-14T05:12:09;13.10;99.90
3701;DHT22;1866;48.374;10.766;2023-06-14T05:14:37;13.20;99.90
3701;DHT22;1866;48.374;10.766;2023-06-14T05:17:04;13.40;99.90
3701;DHT22;1866;48.374;10.766;2023-06-14T05:19:31;13.80;99.90
3701;DHT22;1866;48.374;10.766;2023-06-14T05:21:58;13.60;99.90
3701;DHT22;1866;48.374;10.766;2023-06-14T05:24:26;13.80;99.90
3701;DHT22;1866;48.374;10.766;2023-06-14T05:26:55;13.70;99.90
3701;DHT22;1866;48.374;10.766;2023-06-14T05:29:22;14.00;99.90
3701;DHT22;1866;48.374;10.766;2023-06-14T05:31:48;14.10;99.90
3701;DHT22;1866;48.374;10.766;2023-06-14T05:34:15;14.30;99.90
3701;DHT22;1866;48.374;10.766;2023-06-14T05:36:42;14.10;99.90
3701;DHT22;1866;48.374;10.766;2023-06-14T05:39:09;14.40;99.90
3701;DHT22;1866;48.374;10.766;2023-06-14T05:41:37;14.40;99.90
3701;DHT22;1866;48.374;10.766;2023-06-14T05:44:04;14.50;99.90
3701;DHT22;1866;48.374;10.766;2023-06-14T05:46:31;14.50;99.90
3701;DHT22;1866;48.374;10.766;2023-06-14T05:48:58;14.40;99.90
3701;DHT22;1866;48.374;10.766;2023-06-14T05:51:25;14.50;99.90
3701;DHT22;1866;48.374;10.766;2023-06-14T05:53:52;14.50;99.90
3701;DHT22;1866;48.374;10.766;2023-06-14T05:56:19;14.60;99.90
3701;DHT22;1866;48.374;10.766;2023-06-14T05:58:48;14.40;99.90
3701;DHT22;1866;48.374;10.766;2023-06-14T06:01:16;15.00;99.90
3701;DHT22;1866;48.374;10.766;2023-06-14T06:03:43;14.90;99.90
3701;DHT22;1866;48.374;10.766;2023-06-14T06:06:11;15.10;99.90
3701;DHT22;1866;48.374;10.766;2023-06-14T06:08:38;14.90;99.90
3701;DHT22;1866;48.374;10.766;2023-06-14T06:11:06;15.40;99.90
3701;DHT22;1866;48.374;10.766;2023-06-14T06:13:33;15.60;99.90
3701;DHT22;1866;48.374;10.766;2023-06-14T06:16:02;15.40;99.90
3701;DHT22;1866;48.374;10.766;2023-06-14T06:18:29;15.60;99.90
3701;DHT22;1866;48.374;10.766;2023-06-14T06:20:55;15.90;99.90
3701;DHT22;1866;48.374;10.766;2023-06-14T06:23:22;16.00;99.90
3701;DHT22;1866;48.374;10.766;2023-06-14T06:25:49;16.20;99.90
3701;DHT22;1866;48.374;10.766;2023-06-14T06:28:17;15.90;99.90
3701;DHT22;1866;48.374;10.766;2023-06-14T06:30:43;15.90;99.90
3701;DHT22;1866;48.374;10.766;2023-06-14T06:33:13;16.40;99.90
3701;DHT22;1866;48.374;10.766;2023-06-14T06:35:40;16.40;99.90
3701;DHT22;1866;48.374;10.766;2023-06-14T06:38:07;16.50;99.90
3701;DHT22;1866;48.374;10.766;2023-06-14T06:40:34;16.50;99.90
3701;DHT22;1866;48.374;10.766;2023-06-14T06:43:02;16.80;99.90
3701;DHT22;1866;48.374;10.766;2023-06-14T06:45:29;16.80;99.90
3701;DHT22;1866;48.374;10.766;2023-06-14T06:47:56;16.40;99.90
3701;DHT22;1866;48.374;10.766;2023-06-14T06:50:24;16.80;99.90
3701;DHT22;1866;48.374;10.766;2023-06-14T06:52:51;17.40;99.90
3701;DHT22;1866;48.374;10.766;2023-06-14T06:55:18;17.50;99.90
3701;DHT22;1866;48.374;10.766;2023-06-14T06:57:45;17.40;99.90
3701;DHT22;1866;48.374;10.766;2023-06-14T07:00:13;17.80;99.90
3701;DHT22;1866;48.374;10.766;2023-06-14T07:02:41;17.00;99.90
3701;DHT22;1866;48.374;10.766;2023-06-14T07:05:08;17.40;99.90
3701;DHT22;1866;48.374;10.766;2023-06-14T07:07:36;17.40;99.90
3701;DHT22;1866;48.374;10.766;2023-06-14T07:10:04;17.90;99.90
3701;DHT22;1866;48.374;10.766;2023-06-14T07:12:31;17.30;99.90
3701;DHT22;1866;48.374;10.766;2023-06-14T07:14:59;17.30;99.90
3701;DHT22;1866;48.374;10.766;2023-06-14T07:17:26;17.30;99.90
3701;DHT22;1866;48.374;10.766;2023-06-14T07:19:53;18.00;99.90
3701;DHT22;1866;48.374;10.766;2023-06-14T07:22:20;18.00;99.90
3701;DHT22;1866;48.374;10.766;2023-06-14T07:24:48;18.20;99.90
3701;DHT22;1866;48.374;10.766;2023-06-14T07:27:15;18.30;99.90
3701;DHT22;1866;48.374;10.766;2023-06-14T07:29:42;18.50;99.90
3701;DHT22;1866;48.374;10.766;2023-06-14T07:32:09;18.60;99.90
3701;DHT22;1866;48.374;10.766;2023-06-14T07:34:36;18.60;99.90
3701;DHT22;1866;48.374;10.766;2023-06-14T07:37:03;18.20;99.90
3701;DHT22;1866;48.374;10.766;2023-06-14T07:39:30;17.60;99.90
3701;DHT22;1866;48.374;10.766;2023-06-14T07:41:58;18.10;99.90
3701;DHT22;1866;48.374;10.766;2023-06-14T07:44:27;18.40;99.90
3701;DHT22;1866;48.374;10.766;2023-06-14T07:46:54;18.00;99.90
3701;DHT22;1866;48.374;10.766;2023-06-14T07:49:23;18.00;99.90
3701;DHT22;1866;48.374;10.766;2023-06-14T07:51:50;18.40;99.90
3701;DHT22;1866;48.374;10.766;2023-06-14T07:54:17;18.80;99.90
3701;DHT22;1866;48.374;10.766;2023-06-14T07:56:44;19.10;99.90
3701;DHT22;1866;48.374;10.766;2023-06-14T07:59:12;19.10;99.90
3701;DHT22;1866;48.374;10.766;2023-06-14T08:01:39;18.90;99.90
3701;DHT22;1866;48.374;10.766;2023-06-14T08:04:12;18.60;99.90
3701;DHT22;1866;48.374;10.766;2023-06-14T08:06:39;18.40;99.90
3701;DHT22;1866;48.374;10.766;2023-06-14T08:09:09;18.60;99.90
3701;DHT22;1866;48.374;10.766;2023-06-14T08:11:36;18.70;99.90
3701;DHT22;1866;48.374;10.766;2023-06-14T08:14:03;18.90;99.90
3701;DHT22;1866;48.374;10.766;2023-06-14T08:16:31;18.60;99.90
3701;DHT22;1866;48.374;10.766;2023-06-14T08:18:58;18.90;99.90
3701;DHT22;1866;48.374;10.766;2023-06-14T08:21:25;19.40;99.90
3701;DHT22;1866;48.374;10.766;2023-06-14T08:23:54;19.40;99.90
3701;DHT22;1866;48.374;10.766;2023-06-14T08:26:21;19.30;99.90
3701;DHT22;1866;48.374;10.766;2023-06-14T08:28:48;19.50;99.90
3701;DHT22;1866;48.374;10.766;2023-06-14T08:31:15;19.10;99.90
3701;DHT22;1866;48.374;10.766;2023-06-14T08:33:43;19.20;99.90
3701;DHT22;1866;48.374;10.766;2023-06-14T08:36:10;19.30;99.90
3701;DHT22;1866;48.374;10.766;2023-06-14T08:38:38;19.40;99.90
3701;DHT22;1866;48.374;10.766;2023-06-14T08:41:05;19.80;99.90
3701;DHT22;1866;48.374;10.766;2023-06-14T08:43:32;19.10;99.90
3701;DHT22;1866;48.374;10.766;2023-06-14T08:46:00;19.50;99.90
3701;DHT22;1866;48.374;10.766;2023-06-14T08:48:28;20.00;99.90
3701;DHT22;1866;48.374;10.766;2023-06-14T08:50:59;20.20;99.90
3701;DHT22;1866;48.374;10.766;2023-06-14T08:53:28;19.70;99.90
3701;DHT22;1866;48.374;10.766;2023-06-14T08:55:57;20.40;99.90
3701;DHT22;1866;48.374;10.766;2023-06-14T08:58:25;20.70;99.90
3701;DHT22;1866;48.374;10.766;2023-06-14T09:00:55;20.20;99.90
3701;DHT22;1866;48.374;10.766;2023-06-14T09:03:21;20.20;99.90
3701;DHT22;1866;48.374;10.766;2023-06-14T09:05:55;19.90;99.90
3701;DHT22;1866;48.374;10.766;2023-06-14T09:08:23;19.80;99.90
3701;DHT22;1866;48.374;10.766;2023-06-14T09:10:50;20.30;99.90
3701;DHT22;1866;48.374;10.766;2023-06-14T09:13:17;20.30;99.90
3701;DHT22;1866;48.374;10.766;2023-06-14T09:15:44;20.30;99.90
3701;DHT22;1866;48.374;10.766;2023-06-14T09:18:11;20.30;99.90
3701;DHT22;1866;48.374;10.766;2023-06-14T09:20:37;20.30;99.90
3701;DHT22;1866;48.374;10.766;2023-06-14T09:23:04;20.30;99.90
3701;DHT22;1866;48.374;10.766;2023-06-14T09:25:34;20.20;99.90
3701;DHT22;1866;48.374;10.766;2023-06-14T09:28:07;20.50;99.90
3701;DHT22;1866;48.374;10.766;2023-06-14T09:30:35;20.30;99.90
3701;DHT22;1866;48.374;10.766;2023-06-14T09:33:02;20.30;99.90
3701;DHT22;1866;48.374;10.766;2023-06-14T09:35:30;20.20;99.90
3701;DHT22;1866;48.374;10.766;2023-06-14T09:37:57;20.80;99.90
3701;DHT22;1866;48.374;10.766;2023-06-14T09:40:24;20.60;99.90
3701;DHT22;1866;48.374;10.766;2023-06-14T09:42:53;20.80;99.90
3701;DHT22;1866;48.374;10.766;2023-06-14T09:45:20;20.80;99.90
3701;DHT22;1866;48.374;10.766;2023-06-14T09:47:48;20.80;99.90
3701;DHT22;1866;48.374;10.766;2023-06-14T09:50:15;21.20;99.90
3701;DHT22;1866;48.374;10.766;2023-06-14T09:52:42;21.00;99.90
3701;DHT22;1866;48.374;10.766;2023-06-14T09:55:11;21.20;99.90
3701;DHT22;1866;48.374;10.766;2023-06-14T09:57:38;21.30;99.90
3701;DHT22;1866;48.374;10.766;2023-06-14T10:00:09;21.00;99.90
3701;DHT22;1866;48.374;10.766;2023-06-14T10:02:37;20.70;99.90
3701;DHT22;1866;48.374;10.766;2023-06-14T10:05:05;20.40;99.90
3701;DHT22;1866;48.374;10.766;2023-06-14T10:07:33;20.20;99.90
3701;DHT22;1866;48.374;10.766;2023-06-14T10:10:02;20.40;99.90
3701;DHT22;1866;48.374;10.766;2023-06-14T10:12:29;20.40;99.90
3701;DHT22;1866;48.374;10.766;2023-06-14T10:14:56;20.60;99.90
3701;DHT22;1866;48.374;10.766;2023-06-14T10:17:33;21.00;99.90
3701;DHT22;1866;48.374;10.766;2023-06-14T10:20:12;20.90;99.90
3701;DHT22;1866;48.374;10.766;2023-06-14T10:22:46;20.50;99.90
3701;DHT22;1866;48.374;10.766;2023-06-14T10:25:26;20.20;99.90
3701;DHT22;1866;48.374;10.766;2023-06-14T10:28:03;20.10;99.90
3701;DHT22;1866;48.374;10.766;2023-06-14T10:30:31;20.50;99.90
3701;DHT22;1866;48.374;10.766;2023-06-14T10:33:06;20.70;99.90
3701;DHT22;1866;48.374;10.766;2023-06-14T10:35:33;21.30;99.90
3701;DHT22;1866;48.374;10.766;2023-06-14T10:38:07;21.40;99.90
3701;DHT22;1866;48.374;10.766;2023-06-14T10:40:34;21.10;99.90
3701;DHT22;1866;48.374;10.766;2023-06-14T10:43:01;21.20;99.90
3701;DHT22;1866;48.374;10.766;2023-06-14T10:46:12;21.50;99.90
3701;DHT22;1866;48.374;10.766;2023-06-14T10:48:42;21.80;99.90
3701;DHT22;1866;48.374;10.766;2023-06-14T10:51:16;21.80;99.90
3701;DHT22;1866;48.374;10.766;2023-06-14T10:53:46;21.70;99.90
3701;DHT22;1866;48.374;10.766;2023-06-14T10:56:29;21.50;99.90
3701;DHT22;1866;48.374;10.766;2023-06-14T10:58:57;21.30;99.90
3701;DHT22;1866;48.374;10.766;2023-06-14T11:01:37;21.30;99.90
3701;DHT22;1866;48.374;10.766;2023-06-14T11:04:09;21.80;99.90
3701;DHT22;1866;48.374;10.766;2023-06-14T11:06:47;21.60;99.90
3701;DHT22;1866;48.374;10.766;2023-06-14T11:09:51;21.60;99.90
3701;DHT22;1866;48.374;10.766;2023-06-14T11:12:27;21.30;99.90
3701;DHT22;1866;48.374;10.766;2023-06-14T11:14:55;21.50;99.90
3701;DHT22;1866;48.374;10.766;2023-06-14T11:17:22;21.80;99.90
3701;DHT22;1866;48.374;10.766;2023-06-14T11:20:07;22.10;99.90
3701;DHT22;1866;48.374;10.766;2023-06-14T11:22:39;22.30;99.90
3701;DHT22;1866;48.374;10.766;2023-06-14T11:25:09;22.30;99.90
3701;DHT22;1866;48.374;10.766;2023-06-14T11:27:36;22.30;99.90
3701;DHT22;1866;48.374;10.766;2023-06-14T11:30:06;22.40;99.90
3701;DHT22;1866;48.374;10.766;2023-06-14T11:32:33;22.00;99.90
3701;DHT22;1866;48.374;10.766;2023-06-14T11:35:02;22.30;99.90
3701;DHT22;1866;48.374;10.766;2023-06-14T11:37:30;22.30;99.90
3701;DHT22;1866;48.374;10.766;2023-06-14T11:39:58;22.20;99.90
3701;DHT22;1866;48.374;10.766;2023-06-14T11:42:26;22.40;99.90
3701;DHT22;1866;48.374;10.766;2023-06-14T11:44:54;21.80;99.90
3701;DHT22;1866;48.374;10.766;2023-06-14T11:47:21;21.80;99.90
3701;DHT22;1866;48.374;10.766;2023-06-14T11:49:48;21.80;99.90
3701;DHT22;1866;48.374;10.766;2023-06-14T11:52:17;21.50;99.90
3701;DHT22;1866;48.374;10.766;2023-06-14T11:54:47;21.80;99.90
3701;DHT22;1866;48.374;10.766;2023-06-14T11:57:15;22.30;99.90
3701;DHT22;1866;48.374;10.766;2023-06-14T11:59:44;22.50;99.90
3701;DHT22;1866;48.374;10.766;2023-06-14T12:02:14;21.90;99.90
3701;DHT22;1866;48.374;10.766;2023-06-14T12:04:42;22.00;99.90
3701;DHT22;1866;48.374;10.766;2023-06-14T12:07:09;22.10;99.90
3701;DHT22;1866;48.374;10.766;2023-06-14T12:09:39;22.70;99.90
3701;DHT22;1866;48.374;10.766;2023-06-14T12:12:07;22.10;99.90
3701;DHT22;1866;48.374;10.766;2023-06-14T12:14:34;22.60;99.90
3701;DHT22;1866;48.374;10.766;2023-06-14T12:17:05;22.70;99.90
3701;DHT22;1866;48.374;10.766;2023-06-14T12:19:33;22.30;99.90
3701;DHT22;1866;48.374;10.766;2023-06-14T12:22:00;22.20;99.90
3701;DHT22;1866;48.374;10.766;2023-06-14T12:24:30;22.40;99.90
3701;DHT22;1866;48.374;10.766;2023-06-14T12:26:59;22.70;99.90
3701;DHT22;1866;48.374;10.766;2023-06-14T12:29:28;22.50;99.90
3701;DHT22;1866;48.374;10.766;2023-06-14T12:31:55;22.90;99.90
3701;DHT22;1866;48.374;10.766;2023-06-14T12:34:22;23.10;99.90
3701;DHT22;1866;48.374;10.766;2023-06-14T12:36:50;23.00;99.90
3701;DHT22;1866;48.374;10.766;2023-06-14T12:39:17;22.80;99.90
3701;DHT22;1866;48.374;10.766;2023-06-14T12:41:44;22.70;99.90
3701;DHT22;1866;48.374;10.766;2023-06-14T12:44:12;22.60;99.90
3701;DHT22;1866;48.374;10.766;2023-06-14T12:46:39;23.30;99.90
3701;DHT22;1866;48.374;10.766;2023-06-14T12:49:08;23.10;99.90
3701;DHT22;1866;48.374;10.766;2023-06-14T12:51:35;22.70;99.90
3701;DHT22;1866;48.374;10.766;2023-06-14T12:54:02;22.60;99.90
3701;DHT22;1866;48.374;10.766;2023-06-14T12:56:29;22.70;99.90
3701;DHT22;1866;48.374;10.766;2023-06-14T12:58:56;22.40;99.90
3701;DHT22;1866;48.374;10.766;2023-06-14T13:01:24;22.90;99.90
3701;DHT22;1866;48.374;10.766;2023-06-14T13:03:51;23.10;99.90
3701;DHT22;1866;48.374;10.766;2023-06-14T13:06:20;22.50;99.90
3701;DHT22;1866;48.374;10.766;2023-06-14T13:08:49;22.60;99.90
3701;DHT22;1866;48.374;10.766;2023-06-14T13:11:15;22.60;99.90
3701;DHT22;1866;48.374;10.766;2023-06-14T13:13:42;22.80;99.90
3701;DHT22;1866;48.374;10.766;2023-06-14T13:16:10;22.80;99.90
3701;DHT22;1866;48.374;10.766;2023-06-14T13:18:40;22.10;99.90
3701;DHT22;1866;48.374;10.766;2023-06-14T13:21:07;22.00;99.90
3701;DHT22;1866;48.374;10.766;2023-06-14T13:23:34;21.90;99.90
3701;DHT22;1866;48.374;10.766;2023-06-14T13:26:01;22.00;99.90
3701;DHT22;1866;48.374;10.766;2023-06-14T13:28:27;21.90;99.90
3701;DHT22;1866;48.374;10.766;2023-06-14T13:30:55;22.00;99.90
3701;DHT22;1866;48.374;10.766;2023-06-14T13:33:22;22.60;99.90
3701;DHT22;1866;48.374;10.766;2023-06-14T13:35:51;23.10;99.90
3701;DHT22;1866;48.374;10.766;2023-06-14T13:38:18;23.30;99.90
3701;DHT22;1866;48.374;10.766;2023-06-14T13:40:45;23.70;99.90
3701;DHT22;1866;48.374;10.766;2023-06-14T13:43:12;23.70;99.90
3701;DHT22;1866;48.374;10.766;2023-06-14T13:45:38;23.00;99.90
3701;DHT22;1866;48.374;10.766;2023-06-14T13:48:05;22.60;99.90
3701;DHT22;1866;48.374;10.766;2023-06-14T13:50:32;22.20;99.90
3701;DHT22;1866;48.374;10.766;2023-06-14T13:53:01;22.10;99.90
3701;DHT22;1866;48.374;10.766;2023-06-14T13:55:28;22.40;99.90
3701;DHT22;1866;48.374;10.766;2023-06-14T13:57:55;22.90;99.90
3701;DHT22;1866;48.374;10.766;2023-06-14T14:00:23;22.60;99.90
3701;DHT22;1866;48.374;10.766;2023-06-14T14:02:50;22.50;99.90
3701;DHT22;1866;48.374;10.766;2023-06-14T14:05:17;22.70;99.90
3701;DHT22;1866;48.374;10.766;2023-06-14T14:07:43;23.20;99.90
3701;DHT22;1866;48.374;10.766;2023-06-14T14:10:12;22.90;99.90
3701;DHT22;1866;48.374;10.766;2023-06-14T14:12:40;22.50;99.90
3701;DHT22;1866;48.374;10.766;2023-06-14T14:15:07;22.80;99.90
3701;DHT22;1866;48.374;10.766;2023-06-14T14:17:38;22.80;99.90
3701;DHT22;1866;48.374;10.766;2023-06-14T14:20:07;23.20;99.90
3701;DHT22;1866;48.374;10.766;2023-06-14T14:22:34;23.20;99.90
3701;DHT22;1866;48.374;10.766;2023-06-14T14:25:01;22.80;99.90
3701;DHT22;1866;48.374;10.766;2023-06-14T14:27:29;23.20;99.90
3701;DHT22;1866;48.374;10.766;2023-06-14T14:29:56;23.40;99.90
3701;DHT22;1866;48.374;10.766;2023-06-14T14:32:23;23.10;99.90
3701;DHT22;1866;48.374;10.766;2023-06-14T14:34:50;22.70;99.90
3701;DHT22;1866;48.374;10.766;2023-06-14T14:37:17;22.70;99.90
3701;DHT22;1866;48.374;10.766;2023-06-14T14:39:44;22.80;99.90
3701;DHT22;1866;48.374;10.766;2023-06-14T14:42:12;23.00;99.90
3701;DHT22;1866;48.374;10.766;2023-06-14T14:44:40;23.40;99.90
3701;DHT22;1866;48.374;10.766;2023-06-14T14:47:07;23.20;99.90
3701;DHT22;1866;48.374;10.766;2023-06-14T14:49:34;23.10;99.90
3701;DHT22;1866;48.374;10.766;2023-06-14T14:52:01;22.70;99.90
3701;DHT22;1866;48.374;10.766;2023-06-14T14:54:28;22.30;99.90
3701;DHT22;1866;48.374;10.766;2023-06-14T14:56:55;22.20;99.90
3701;DHT22;1866;48.374;10.766;2023-06-14T14:59:22;22.30;99.90
3701;DHT22;1866;48.374;10.766;2023-06-14T15:01:50;22.00;99.90
3701;DHT22;1866;48.374;10.766;2023-06-14T15:04:17;22.00;99.90
3701;DHT22;1866;48.374;10.766;2023-06-14T15:06:44;22.10;99.90
3701;DHT22;1866;48.374;10.766;2023-06-14T15:09:11;22.40;99.90
3701;DHT22;1866;48.374;10.766;2023-06-14T15:11:38;22.70;99.90
3701;DHT22;1866;48.374;10.766;2023-06-14T15:14:05;22.90;99.90
3701;DHT22;1866;48.374;10.766;2023-06-14T15:16:32;22.70;99.90
3701;DHT22;1866;48.374;10.766;2023-06-14T15:19:00;22.70;99.90
3701;DHT22;1866;48.374;10.766;2023-06-14T15:21:27;22.80;99.90
3701;DHT22;1866;48.374;10.766;2023-06-14T15:23:54;22.90;99.90
3701;DHT22;1866;48.374;10.766;2023-06-14T15:26:21;23.10;99.90
3701;DHT22;1866;48.374;10.766;2023-06-14T15:28:49;22.80;99.90
3701;DHT22;1866;48.374;10.766;2023-06-14T15:31:16;22.60;99.90
3701;DHT22;1866;48.374;10.766;2023-06-14T15:33:43;22.60;99.90
3701;DHT22;1866;48.374;10.766;2023-06-14T15:36:11;22.60;99.90
3701;DHT22;1866;48.374;10.766;2023-06-14T15:38:38;22.70;99.90
3701;DHT22;1866;48.374;10.766;2023-06-14T15:41:05;22.90;99.90
3701;DHT22;1866;48.374;10.766;2023-06-14T15:43:33;22.60;99.90
3701;DHT22;1866;48.374;10.766;2023-06-14T15:46:01;22.90;99.90
3701;DHT22;1866;48.374;10.766;2023-06-14T15:48:27;23.30;99.90
3701;DHT22;1866;48.374;10.766;2023-06-14T15:50:54;22.90;99.90
3701;DHT22;1866;48.374;10.766;2023-06-14T15:53:23;22.70;99.90
3701;DHT22;1866;48.374;10.766;2023-06-14T15:55:49;22.70;99.90
3701;DHT22;1866;48.374;10.766;2023-06-14T15:58:16;22.80;99.90